KLWV

Lawrenceville-Vincennes International Airport

Lawrenceville, Illinois, USA
METAR KLWV 191053Z AUTO 12004KT 8SM CLR 01/M02 A3002 RMK AO2 SLP169 T00061017 $
Observed Flight Rules
Dec-19 @ 10:53 UTC (46 minutes ago) Visual Flight Rules
Wind Visibility Clouds
120° at 4 knots 8 miles
  • Clear skies
Temperatures Readings
Current 1°C / 34°F
Dewpoint -2°C / 28°F
Humidity 81%
Altimeter 30.02" Hg
Pressure 1016.9 hPa
Elevation 131
METAR KLWV 191053Z AUTO 12004KT 8SM CLR 01/M02 A3002 RMK AO2 SLP169 T00061017 $
Observed Flight Rules
Dec-19 @ 10:53 UTC
(46 minutes ago)
VFR
Wind Visibility
120° at 4 knots 8 miles
Clouds
  • Clear skies
Temperature Dewpoint
1°C / 34°F -2°C / 28°F
Humidity Altimeter Pressure
81% 30.02" Hg 1016.9 hPa